»·PEaware :: N1927H KDTA-KSLC

N1927H :: KDTA-KSLC

FLIGHT INFORMATION

Flight Status: Arrived
Operator: Privately registered:
United States
More flights under this callsign
Pilot: Wayne R. (17783)
Aircraft: PIPER PA-28R-201 ARROW
(P28R)
More flights by this aircraft type
Origin: KDTA Delta Mun
United States
Destination: KSLC Salt Lake City Intl
United States
More flights between these airports :: More routes between these airports
Route: +
File this flight plan on PilotEdge
Remarks:
Altitude:
(Current/Filed)
8,500ft
Speed:
(Current/Filed)
135kts
Departed: 29-Feb-20 08:28 AM
Arrived: 29-Feb-20 09:25 AM
Distance/Time
Traveled:
88nm/0:57
Distance/Time
To Go:
Arrived

Flight Plot

Page will automatically refresh every two minutes.

Flight plan parsing failed; only flown route is shown


Map Options




Map Legend


Flown Route
Filed Route
Departure Airport
Arrival Airport
Navaid (VOR, NDB)
Fix

Horizontal Profiles

Position Reports

Time Latitude Longitude Heading Altitude Ground
Speed
29-Feb-20 08:23 39.386219 -112.512777 193 4754ft 0kts
29-Feb-20 08:24 39.386219 -112.512777 193 4754ft 0kts
29-Feb-20 08:25 39.385473 -112.512681 136 4754ft 0kts
29-Feb-20 08:26 39.382697 -112.512511 135 4751ft 11kts
29-Feb-20 08:27 39.372564 -112.495660 86 5003ft 84kts
29-Feb-20 08:28 39.391286 -112.470080 21 5457ft 115kts
29-Feb-20 08:29 39.422357 -112.460183 5 6043ft 117kts
29-Feb-20 08:30 39.454491 -112.454344 5 6640ft 117kts
29-Feb-20 08:31 39.486435 -112.447867 5 7239ft 116kts
29-Feb-20 08:32 39.517866 -112.440680 5 7838ft 114kts
29-Feb-20 08:33 39.548570 -112.432756 5 8438ft 110kts
29-Feb-20 08:34 39.578335 -112.424190 5 8893ft 117kts
29-Feb-20 08:35 39.612496 -112.414720 5 9216ft 131kts
29-Feb-20 08:36 39.648968 -112.404598 5 9481ft 139kts
29-Feb-20 08:37 39.686098 -112.385575 37 9611ft 148kts
29-Feb-20 08:38 39.704197 -112.339875 104 9722ft 144kts
29-Feb-20 08:39 39.719442 -112.298699 32 9831ft 150kts
29-Feb-20 08:40 39.715774 -112.250619 118 9945ft 141kts
29-Feb-20 08:41 39.699995 -112.203258 118 10039ft 145kts
29-Feb-20 08:42 39.687618 -112.153546 111 10187ft 145kts
29-Feb-20 08:43 39.675683 -112.103060 111 10287ft 147kts
29-Feb-20 08:44 39.669110 -112.050864 87 10405ft 151kts
29-Feb-20 08:45 39.678153 -111.998136 59 10535ft 151kts
29-Feb-20 08:46 39.699301 -111.950225 59 10622ft 153kts
29-Feb-20 08:47 39.720577 -111.902419 59 10745ft 153kts
29-Feb-20 08:48 39.746572 -111.861690 21 10848ft 150kts
29-Feb-20 08:49 39.780197 -111.840671 11 11058ft 135kts
29-Feb-20 08:50 39.815271 -111.823263 11 10878ft 135kts
29-Feb-20 08:51 39.850379 -111.813182 350 10697ft 124kts
29-Feb-20 08:52 39.885169 -111.814322 351 10421ft 124kts
29-Feb-20 08:53 39.918506 -111.816772 351 9514ft 118kts
29-Feb-20 08:54 39.950623 -111.817336 6 8450ft 116kts
29-Feb-20 08:55 39.979036 -111.811880 5 8113ft 99kts
29-Feb-20 08:56 40.006536 -111.806299 5 8047ft 94kts
29-Feb-20 08:57 40.024709 -111.802029 4 8243ft 71kts
29-Feb-20 08:58 40.047572 -111.795602 5 8504ft 100kts
29-Feb-20 08:59 40.078668 -111.788504 5 8595ft 119kts
29-Feb-20 09:00 40.111246 -111.781003 5 8836ft 117kts
29-Feb-20 09:01 40.143856 -111.773156 6 8878ft 122kts
29-Feb-20 09:02 40.177071 -111.767886 1 8515ft 116kts
29-Feb-20 09:03 40.208203 -111.772209 349 7778ft 111kts
29-Feb-20 09:04 40.235814 -111.786781 330 7211ft 106kts
29-Feb-20 09:05 40.258634 -111.806428 329 6906ft 96kts
29-Feb-20 09:06 40.286454 -111.829200 331 6638ft 130kts
29-Feb-20 09:07 40.321080 -111.847775 341 6613ft 137kts
29-Feb-20 09:08 40.357687 -111.862088 341 6611ft 138kts
29-Feb-20 09:09 40.394835 -111.876531 341 6607ft 139kts
29-Feb-20 09:10 40.432805 -111.887765 346 6601ft 140kts
29-Feb-20 09:11 40.471420 -111.895534 353 6594ft 141kts
29-Feb-20 09:12 40.510835 -111.899030 354 6584ft 142kts
29-Feb-20 09:13 40.550447 -111.896965 9 6574ft 143kts
29-Feb-20 09:14 40.589480 -111.886892 10 6566ft 143kts
29-Feb-20 09:15 40.629247 -111.880934 357 6555ft 144kts
29-Feb-20 09:16 40.669249 -111.880807 356 6550ft 144kts
29-Feb-20 09:17 40.708959 -111.885644 349 6551ft 145kts
29-Feb-20 09:18 40.749296 -111.892227 349 6550ft 146kts
29-Feb-20 09:19 40.789579 -111.898587 351 6550ft 146kts
29-Feb-20 09:20 40.829777 -111.904904 337 6550ft 144kts
29-Feb-20 09:21 40.847986 -111.939207 231 6489ft 98kts
29-Feb-20 09:22 40.827204 -111.961407 192 4895ft 88kts
29-Feb-20 09:23 40.803708 -111.962033 183 4313ft 85kts
29-Feb-20 09:24 40.791384 -111.960625 100 4218ft 0kts
29-Feb-20 09:25 40.790033 -111.959190 136 4218ft 11kts
29-Feb-20 09:26 40.788504 -111.957776 233 4218ft 0kts
29-Feb-20 09:27 40.788504 -111.957776 233 4218ft 0kts
29-Feb-20 09:28 40.788504 -111.957776 233 4218ft 0kts
29-Feb-20 09:29 40.788504 -111.957776 233 4218ft 0kts
29-Feb-20 09:30 40.788504 -111.957776 233 4218ft 0kts
29-Feb-20 09:31 40.788504 -111.957776 233 4218ft 0kts
29-Feb-20 09:32 40.788504 -111.957776 233 4218ft 0kts
29-Feb-20 09:33 40.788504 -111.957776 233 4218ft 0kts
29-Feb-20 09:34 40.788504 -111.957776 233 4218ft 0kts
29-Feb-20 09:35 40.788504 -111.957776 233 4218ft 0kts
29-Feb-20 09:36 40.788504 -111.957776 233 4218ft 0kts
29-Feb-20 09:37 40.788504 -111.957776 233 4218ft 0kts
29-Feb-20 09:38 40.788504 -111.957776 233 4218ft 0kts

Navigation Log

Ident Type
Flight plan parsing failed, navigation log unavailable